This is the latest recevied weather packets stored in our database for station/object IT9RID. If no packets are shown the sender has not sent any weather packets the latest 10 day(s).
| Time | Temp. | Humidity | Pressure | Rain* | Wind** | Luminosity | Snow |
|---|---|---|---|---|---|---|---|
| 1777895639 | 21.67° C | 43% | 1019 hPa | 0 mm | - | - | - |
| 1777895040 | 21.67° C | 42% | 1019 hPa | 0 mm | - | - | - |
| 1777894439 | 21.11° C | 47% | 1019.2 hPa | 0 mm | - | - | - |
| 1777893839 | 20.56° C | 48% | 1019.2 hPa | 0 mm | - | - | - |
| 1777893238 | 21.11° C | 49% | 1019.4 hPa | 0 mm | - | - | - |
| 1777892638 | 21.11° C | 46% | 1019.4 hPa | 0 mm | - | - | - |
| 1777892038 | 21.11° C | 45% | 1019.4 hPa | 0 mm | - | - | - |
| 1777891438 | 21.67° C | 46% | 1019.5 hPa | 0 mm | - | - | - |
| 1777890838 | 21.11° C | 49% | 1019.7 hPa | 0 mm | - | - | - |
| 1777890239 | 20.56° C | 52% | 1019.9 hPa | 0 mm | - | - | - |
| 1777889638 | 20.56° C | 52% | 1020 hPa | 0 mm | - | - | - |
| 1777889037 | 20.56° C | 50% | 1020 hPa | 0 mm | - | - | - |
| 1777888437 | 20.56° C | 50% | 1020.2 hPa | 0 mm | - | - | - |
| 1777887838 | 20° C | 50% | 1020.1 hPa | 0 mm | - | - | - |
| 1777887237 | 20.56° C | 48% | 1020.1 hPa | 0 mm | - | - | - |
| 1777886637 | 20.56° C | 48% | 1020.2 hPa | 0 mm | - | - | - |
| 1777886037 | 20° C | 51% | 1020.1 hPa | 0 mm | - | - | - |
| 1777885437 | 20.56° C | 50% | 1020 hPa | 0 mm | - | - | - |
| 1777884846 | 20.56° C | 50% | 1019.9 hPa | 0 mm | - | - | - |
| 1777884236 | 20° C | 53% | 1019.8 hPa | 0 mm | - | - | - |
| 1777883636 | 18.89° C | 61% | 1019.9 hPa | 0 mm | - | - | - |
| 1777883036 | 18.89° C | 59% | 1020 hPa | 0 mm | - | - | - |
| 1777882436 | 19.44° C | 56% | 1020 hPa | 0 mm | - | - | - |
| 1777881836 | 19.44° C | 54% | 1020 hPa | 0 mm | - | - | - |
| 1777881235 | 19.44° C | 48% | 1020 hPa | 0 mm | - | - | - |
* Rain latest hour (hover to see other rain measurements)
** Current wind speed in m/s (hover to see current wind gust speed)